Isabella — 9HSL7 — position and weather

sailwx.info

Track history (hours):
 
Tides and Currents Weather Stations Pressure Air Temp Water Temp Dewpoint Dewpoint Depression Visibility Wind Speed Wind Dir Waves Ship Positions

Isabella

Last reported at 2014-Jul-26 08:33 UTC. Time now 2014-Jul-26 09:08 UTC.
Position N 60°09' E 028°34'.

Length 244 m; draft 8.5 m.

Type: Tanker. MMSI: 215545000.

Date/timePositionNaut miles runAvg speedWind from/ knotsBaromVisibWave heightAir tempDewpointWater temp
2014-Jul-26 08:33N 60°09' E 028°34'4 0.1
2014-Jul-25 03:22N 60°05' E 028°37'26 1.0
2014-Jul-24 01:24N 60°10' E 027°45'910.2
2014-Jul-24 00:32N 60°06' E 027°30'1010.1
2014-Jul-23 23:33N 60°01' E 027°13'10 9.9
2014-Jul-23 22:33N 59°58' E 026°54'1110.5
2014-Jul-23 21:33N 59°58' E 026°33'1110.8
2014-Jul-23 20:33N 59°56' E 026°12'1110.7
2014-Jul-23 19:30N 59°53' E 025°50'4610.5
2014-Jul-23 15:05N 59°43' E 024°20'610.4
2014-Jul-23 14:33N 59°41' E 024°10'1010.1
2014-Jul-23 13:33N 59°38' E 023°51'1010.1
2014-Jul-23 12:32N 59°35' E 023°32'1210.8
2014-Jul-23 11:26N 59°31' E 023°10'4210.3
2014-Jul-23 07:24N 59°10' E 021°59'8 9.8
2014-Jul-23 06:33N 59°05' E 021°46'10 9.7
2014-Jul-23 05:33N 58°57' E 021°36'1110.9
2014-Jul-23 04:33N 58°48' E 021°24'1111.0
2014-Jul-23 03:33N 58°39' E 021°12'1510.2
2014-Jul-23 02:04N 58°26' E 020°56'510.4
2014-Jul-23 01:33N 58°22' E 020°50'1010.1
2014-Jul-23 00:33N 58°13' E 020°40'1010.0
2014-Jul-22 23:33N 58°05' E 020°29'10 9.6
2014-Jul-22 22:33N 57°56' E 020°20'10 9.7
2014-Jul-22 21:33N 57°48' E 020°13'10 9.7
2014-Jul-22 20:33N 57°39' E 020°05'10 9.8
2014-Jul-22 19:33N 57°30' E 019°58'10 9.7
2014-Jul-22 18:33N 57°21' E 019°51'10 9.6
2014-Jul-22 17:33N 57°12' E 019°42'9 9.4
2014-Jul-22 16:33N 57°04' E 019°34'9 9.4
2014-Jul-22 15:33N 56°56' E 019°26'9 9.4
2014-Jul-22 14:33N 56°48' E 019°17'9 9.4
2014-Jul-22 13:33N 56°39' E 019°09'9 9.4
2014-Jul-22 12:33N 56°31' E 019°01'9 9.4
2014-Jul-22 11:33N 56°23' E 018°53'9 9.0
2014-Jul-22 10:33N 56°17' E 018°41'9 9.5
2014-Jul-22 09:33N 56°12' E 018°27'10 9.6
2014-Jul-22 08:33N 56°07' E 018°12'10 9.8
2014-Jul-22 07:33N 56°01' E 017°57'1010.0
2014-Jul-22 06:33N 55°56' E 017°42'10 9.9
2014-Jul-22 05:33N 55°53' E 017°25'10 9.7
2014-Jul-22 04:33N 55°51' E 017°08'10 9.7
2014-Jul-22 03:33N 55°49' E 016°52'10 9.5
2014-Jul-22 02:33N 55°46' E 016°35'9 9.3
2014-Jul-22 01:33N 55°44' E 016°19'9 9.5
2014-Jul-22 00:33N 55°41' E 016°03'10 9.6
2014-Jul-21 23:33N 55°39' E 015°47'10 9.6
2014-Jul-21 22:33N 55°37' E 015°30'10 9.6
2014-Jul-21 21:33N 55°32' E 015°15'10 9.6
2014-Jul-21 20:33N 55°29' E 014°59'3 9.8
2014-Jul-21 20:18N 55°28' E 014°55'7 9.9
2014-Jul-21 19:33N 55°25' E 014°43'10 9.7
2014-Jul-21 18:33N 55°18' E 014°31'10 9.7
2014-Jul-21 17:33N 55°10' E 014°21'10 9.9
2014-Jul-21 16:33N 55°03' E 014°10'10 9.5
2014-Jul-21 15:33N 54°58' E 013°55'9 9.4
2014-Jul-21 14:33N 54°56' E 013°39'9 9.2
2014-Jul-21 13:33N 54°52' E 013°24'9 8.9
2014-Jul-21 12:33N 54°50' E 013°10'9 9.0
2014-Jul-21 11:33N 54°47' E 012°55'9 9.0
2014-Jul-21 10:33N 54°43' E 012°41'9 8.9
2014-Jul-21 09:33N 54°39' E 012°28'9 9.0
2014-Jul-21 08:33N 54°33' E 012°15'10 9.8
2014-Jul-21 07:33N 54°25' E 012°07'1111.4
2014-Jul-21 06:33N 54°25' E 011°47'1211.6
2014-Jul-21 05:33N 54°30' E 011°29'1111.1
2014-Jul-21 04:33N 54°34' E 011°12'1111.1
2014-Jul-21 03:33N 54°40' E 010°56'1010.4
2014-Jul-21 02:33N 54°51' E 010°52'1311.1
2014-Jul-21 01:24N 55°02' E 011°02'910.7
2014-Jul-21 00:31N 55°11' E 011°05'10 9.5
2014-Jul-20 23:31N 55°21' E 011°02'1111.2
2014-Jul-20 22:32N 55°30' E 010°52'1110.8
2014-Jul-20 21:32N 55°40' E 010°46'5310.7
2014-Jul-20 16:33N 56°30' E 011°19'1010.1
2014-Jul-20 15:32N 56°37' E 011°33'1010.5
2014-Jul-20 14:33N 56°44' E 011°48'10 9.5
2014-Jul-20 13:33N 56°53' E 011°46'1110.9
2014-Jul-20 12:31N 57°04' E 011°40'1010.6
2014-Jul-20 11:33N 57°13' E 011°33'1010.0
2014-Jul-20 10:33N 57°23' E 011°27'9 9.3
2014-Jul-20 09:33N 57°31' E 011°18'9 9.3
2014-Jul-20 08:33N 57°37' E 011°05'9 9.0
2014-Jul-20 07:33N 57°43' E 010°53'8 8.5
2014-Jul-20 06:33N 57°47' E 010°39'9 9.3
2014-Jul-20 05:33N 57°47' E 010°22'10 9.7
2014-Jul-20 04:33N 57°48' E 010°03'10 9.7
2014-Jul-20 03:33N 57°48' E 009°45'10 9.8
2014-Jul-20 02:33N 57°44' E 009°28'1010.3
2014-Jul-20 01:33N 57°38' E 009°12'13810.5
2014-Jul-19 12:21N 55°50' E 006°36'910.6
2014-Jul-19 11:30N 55°42' E 006°28'3 2.5
2014-Jul-19 10:24N 55°40' E 006°25'1010.2
2014-Jul-19 09:23N 55°31' E 006°17'910.2
2014-Jul-19 08:33N 55°23' E 006°10'1310.1
2014-Jul-19 07:13N 55°11' E 005°58'2111.4
2014-Jul-19 05:22N 54°53' E 005°40'810.1
2014-Jul-19 04:31N 54°46' E 005°32'1010.1
2014-Jul-19 03:30N 54°37' E 005°24'1010.1
2014-Jul-19 02:33N 54°28' E 005°16'1010.3
2014-Jul-19 01:33N 54°19' E 005°07'1010.5
2014-Jul-19 00:33N 54°10' E 004°58'1010.4
2014-Jul-18 23:33N 54°02' E 004°47'1010.4
2014-Jul-18 22:33N 53°54' E 004°35'1010.4
2014-Jul-18 21:33N 53°47' E 004°23'10 9.9
2014-Jul-18 20:33N 53°41' E 004°10'10 9.7
2014-Jul-18 19:33N 53°35' E 003°57'9 9.4
2014-Jul-18 18:33N 53°29' E 003°45'10 9.9
2014-Jul-18 17:33N 53°20' E 003°38'10 9.6
2014-Jul-18 16:33N 53°11' E 003°32'9 9.3
2014-Jul-18 15:33N 53°03' E 003°26'9 9.0
2014-Jul-18 14:33N 52°54' E 003°21'18 8.6
2014-Jul-18 12:27N 52°38' E 003°06'8 9.0
2014-Jul-18 11:33N 52°31' E 003°00'10 9.7
2014-Jul-18 10:33N 52°23' E 002°52'1010.3
2014-Jul-18 09:33N 52°13' E 002°45'1311.0
2014-Jul-18 08:24N 52°06' E 003°02'810.0
2014-Jul-18 07:33N 52°04' E 003°15'10 9.7
2014-Jul-18 06:33N 52°04' E 003°31'10 9.6
2014-Jul-18 05:33N 52°04' E 003°46'10 9.7
2014-Jul-18 04:33N 52°00' E 004°01'7 2.2
2014-Jul-18 01:32N 51°56' E 004°10'0 0.0
2014-Jul-17 00:11N 51°56' E 004°10'0 0.2
2014-Jul-16 23:34N 51°57' E 004°10'2 2.4
2014-Jul-16 22:34N 51°58' E 004°07'8 8.3
2014-Jul-16 21:33N 52°02' E 003°54'10 9.6
2014-Jul-16 20:33N 52°00' E 003°39'9 8.9
2014-Jul-16 19:32N 51°59' E 003°24'9 8.8
2014-Jul-16 18:34N 51°54' E 003°13'1110.4
2014-Jul-16 17:33N 51°50' E 002°57'9 9.2
2014-Jul-16 16:33N 51°53' E 002°43'8 8.3
2014-Jul-16 15:32N 52°00' E 002°36'9 9.1
2014-Jul-16 14:34N 52°09' E 002°36'10 9.7
2014-Jul-16 13:34N 52°18' E 002°43'1010.3
2014-Jul-16 12:34N 52°27' E 002°51'1110.6
2014-Jul-16 11:34N 52°36' E 002°59'1110.9
2014-Jul-16 10:33N 52°46' E 003°08'  
Track history (hours):
 
Tides and Currents Weather Stations Pressure Air Temp Water Temp Dewpoint Dewpoint Depression Visibility Wind Speed Wind Dir Waves Ship Positions

Isabella

Last reported at 2014-Jul-26 08:33 UTC. Time now 2014-Jul-26 09:08 UTC.
Position N 60°09' E 028°34'.

Length 244 m; draft 8.5 m.

Type: Tanker. MMSI: 215545000.

Date/timePositionNaut miles runAvg speedWind from/ knotsBaromVisibWave heightAir tempDewpointWater temp
2014-Jul-26 08:33N 60°09' E 028°34'4 0.1
2014-Jul-25 03:22N 60°05' E 028°37'26 1.0
2014-Jul-24 01:24N 60°10' E 027°45'910.2
2014-Jul-24 00:32N 60°06' E 027°30'1010.1
2014-Jul-23 23:33N 60°01' E 027°13'10 9.9
2014-Jul-23 22:33N 59°58' E 026°54'1110.5
2014-Jul-23 21:33N 59°58' E 026°33'1110.8
2014-Jul-23 20:33N 59°56' E 026°12'1110.7
2014-Jul-23 19:30N 59°53' E 025°50'4610.5
2014-Jul-23 15:05N 59°43' E 024°20'610.4
2014-Jul-23 14:33N 59°41' E 024°10'1010.1
2014-Jul-23 13:33N 59°38' E 023°51'1010.1
2014-Jul-23 12:32N 59°35' E 023°32'1210.8
2014-Jul-23 11:26N 59°31' E 023°10'4210.3
2014-Jul-23 07:24N 59°10' E 021°59'8 9.8
2014-Jul-23 06:33N 59°05' E 021°46'10 9.7
2014-Jul-23 05:33N 58°57' E 021°36'1110.9
2014-Jul-23 04:33N 58°48' E 021°24'1111.0
2014-Jul-23 03:33N 58°39' E 021°12'1510.2
2014-Jul-23 02:04N 58°26' E 020°56'510.4
2014-Jul-23 01:33N 58°22' E 020°50'1010.1
2014-Jul-23 00:33N 58°13' E 020°40'1010.0
2014-Jul-22 23:33N 58°05' E 020°29'10 9.6
2014-Jul-22 22:33N 57°56' E 020°20'10 9.7
2014-Jul-22 21:33N 57°48' E 020°13'10 9.7
2014-Jul-22 20:33N 57°39' E 020°05'10 9.8
2014-Jul-22 19:33N 57°30' E 019°58'10 9.7
2014-Jul-22 18:33N 57°21' E 019°51'10 9.6
2014-Jul-22 17:33N 57°12' E 019°42'9 9.4
2014-Jul-22 16:33N 57°04' E 019°34'9 9.4
2014-Jul-22 15:33N 56°56' E 019°26'9 9.4
2014-Jul-22 14:33N 56°48' E 019°17'9 9.4
2014-Jul-22 13:33N 56°39' E 019°09'9 9.4
2014-Jul-22 12:33N 56°31' E 019°01'9 9.4
2014-Jul-22 11:33N 56°23' E 018°53'9 9.0
2014-Jul-22 10:33N 56°17' E 018°41'9 9.5
2014-Jul-22 09:33N 56°12' E 018°27'10 9.6
2014-Jul-22 08:33N 56°07' E 018°12'10 9.8
2014-Jul-22 07:33N 56°01' E 017°57'1010.0
2014-Jul-22 06:33N 55°56' E 017°42'10 9.9
2014-Jul-22 05:33N 55°53' E 017°25'10 9.7
2014-Jul-22 04:33N 55°51' E 017°08'10 9.7
2014-Jul-22 03:33N 55°49' E 016°52'10 9.5
2014-Jul-22 02:33N 55°46' E 016°35'9 9.3
2014-Jul-22 01:33N 55°44' E 016°19'9 9.5
2014-Jul-22 00:33N 55°41' E 016°03'10 9.6
2014-Jul-21 23:33N 55°39' E 015°47'10 9.6
2014-Jul-21 22:33N 55°37' E 015°30'10 9.6
2014-Jul-21 21:33N 55°32' E 015°15'10 9.6
2014-Jul-21 20:33N 55°29' E 014°59'3 9.8
2014-Jul-21 20:18N 55°28' E 014°55'7 9.9
2014-Jul-21 19:33N 55°25' E 014°43'10 9.7
2014-Jul-21 18:33N 55°18' E 014°31'10 9.7
2014-Jul-21 17:33N 55°10' E 014°21'10 9.9
2014-Jul-21 16:33N 55°03' E 014°10'10 9.5
2014-Jul-21 15:33N 54°58' E 013°55'9 9.4
2014-Jul-21 14:33N 54°56' E 013°39'9 9.2
2014-Jul-21 13:33N 54°52' E 013°24'9 8.9
2014-Jul-21 12:33N 54°50' E 013°10'9 9.0
2014-Jul-21 11:33N 54°47' E 012°55'9 9.0
2014-Jul-21 10:33N 54°43' E 012°41'9 8.9
2014-Jul-21 09:33N 54°39' E 012°28'9 9.0
2014-Jul-21 08:33N 54°33' E 012°15'10 9.8
2014-Jul-21 07:33N 54°25' E 012°07'1111.4
2014-Jul-21 06:33N 54°25' E 011°47'1211.6
2014-Jul-21 05:33N 54°30' E 011°29'1111.1
2014-Jul-21 04:33N 54°34' E 011°12'1111.1
2014-Jul-21 03:33N 54°40' E 010°56'1010.4
2014-Jul-21 02:33N 54°51' E 010°52'1311.1
2014-Jul-21 01:24N 55°02' E 011°02'910.7
2014-Jul-21 00:31N 55°11' E 011°05'10 9.5
2014-Jul-20 23:31N 55°21' E 011°02'1111.2
2014-Jul-20 22:32N 55°30' E 010°52'1110.8
2014-Jul-20 21:32N 55°40' E 010°46'5310.7
2014-Jul-20 16:33N 56°30' E 011°19'1010.1
2014-Jul-20 15:32N 56°37' E 011°33'1010.5
2014-Jul-20 14:33N 56°44' E 011°48'10 9.5
2014-Jul-20 13:33N 56°53' E 011°46'1110.9
2014-Jul-20 12:31N 57°04' E 011°40'1010.6
2014-Jul-20 11:33N 57°13' E 011°33'1010.0
2014-Jul-20 10:33N 57°23' E 011°27'9 9.3
2014-Jul-20 09:33N 57°31' E 011°18'9 9.3
2014-Jul-20 08:33N 57°37' E 011°05'9 9.0
2014-Jul-20 07:33N 57°43' E 010°53'8 8.5
2014-Jul-20 06:33N 57°47' E 010°39'9 9.3
2014-Jul-20 05:33N 57°47' E 010°22'10 9.7
2014-Jul-20 04:33N 57°48' E 010°03'10 9.7
2014-Jul-20 03:33N 57°48' E 009°45'10 9.8
2014-Jul-20 02:33N 57°44' E 009°28'1010.3
2014-Jul-20 01:33N 57°38' E 009°12'13810.5
2014-Jul-19 12:21N 55°50' E 006°36'910.6
2014-Jul-19 11:30N 55°42' E 006°28'3 2.5
2014-Jul-19 10:24N 55°40' E 006°25'1010.2
2014-Jul-19 09:23N 55°31' E 006°17'910.2
2014-Jul-19 08:33N 55°23' E 006°10'1310.1
2014-Jul-19 07:13N 55°11' E 005°58'2111.4
2014-Jul-19 05:22N 54°53' E 005°40'810.1
2014-Jul-19 04:31N 54°46' E 005°32'1010.1
2014-Jul-19 03:30N 54°37' E 005°24'1010.1
2014-Jul-19 02:33N 54°28' E 005°16'1010.3
2014-Jul-19 01:33N 54°19' E 005°07'1010.5
2014-Jul-19 00:33N 54°10' E 004°58'1010.4
2014-Jul-18 23:33N 54°02' E 004°47'1010.4
2014-Jul-18 22:33N 53°54' E 004°35'1010.4
2014-Jul-18 21:33N 53°47' E 004°23'10 9.9
2014-Jul-18 20:33N 53°41' E 004°10'10 9.7
2014-Jul-18 19:33N 53°35' E 003°57'9 9.4
2014-Jul-18 18:33N 53°29' E 003°45'10 9.9
2014-Jul-18 17:33N 53°20' E 003°38'10 9.6
2014-Jul-18 16:33N 53°11' E 003°32'9 9.3
2014-Jul-18 15:33N 53°03' E 003°26'9 9.0
2014-Jul-18 14:33N 52°54' E 003°21'18 8.6
2014-Jul-18 12:27N 52°38' E 003°06'8 9.0
2014-Jul-18 11:33N 52°31' E 003°00'10 9.7
2014-Jul-18 10:33N 52°23' E 002°52'1010.3
2014-Jul-18 09:33N 52°13' E 002°45'1311.0
2014-Jul-18 08:24N 52°06' E 003°02'810.0
2014-Jul-18 07:33N 52°04' E 003°15'10 9.7
2014-Jul-18 06:33N 52°04' E 003°31'10 9.6
2014-Jul-18 05:33N 52°04' E 003°46'10 9.7
2014-Jul-18 04:33N 52°00' E 004°01'7 2.2
2014-Jul-18 01:32N 51°56' E 004°10'0 0.0
2014-Jul-17 00:11N 51°56' E 004°10'0 0.2
2014-Jul-16 23:34N 51°57' E 004°10'2 2.4
2014-Jul-16 22:34N 51°58' E 004°07'8 8.3
2014-Jul-16 21:33N 52°02' E 003°54'10 9.6
2014-Jul-16 20:33N 52°00' E 003°39'9 8.9
2014-Jul-16 19:32N 51°59' E 003°24'9 8.8
2014-Jul-16 18:34N 51°54' E 003°13'1110.4
2014-Jul-16 17:33N 51°50' E 002°57'9 9.2
2014-Jul-16 16:33N 51°53' E 002°43'8 8.3
2014-Jul-16 15:32N 52°00' E 002°36'9 9.1
2014-Jul-16 14:34N 52°09' E 002°36'10 9.7
2014-Jul-16 13:34N 52°18' E 002°43'1010.3
2014-Jul-16 12:34N 52°27' E 002°51'1110.6
2014-Jul-16 11:34N 52°36' E 002°59'1110.9
2014-Jul-16 10:33N 52°46' E 003°08'  

Dump ship's entire track history